createdAt,value
2022-08-07T00:14:50.799Z,52.6
2022-08-07T00:34:32.408Z,53.9
2022-08-07T00:54:37.686Z,55.1
2022-08-07T01:14:36.949Z,56.7
2022-08-07T01:35:53.941Z,55.5
2022-08-07T01:55:22.134Z,57
2022-08-07T02:15:05.953Z,58.2
2022-08-07T02:34:48.880Z,59.1
2022-08-07T02:53:54.759Z,60.8
2022-08-07T03:14:12.609Z,61.4
2022-08-07T03:34:06.939Z,62.8
2022-08-07T03:54:54.668Z,62.6
2022-08-07T04:14:37.151Z,63.6
2022-08-07T04:34:45.791Z,63.5
2022-08-07T04:58:08.676Z,63.1
2022-08-07T05:15:24.559Z,60.5
2022-08-07T05:34:35.894Z,54.5
2022-08-07T05:54:30.373Z,52.3
2022-08-07T06:14:21.053Z,52
2022-08-07T06:34:09.498Z,49.1
2022-08-07T06:55:30.549Z,46
2022-08-07T07:14:08.451Z,45
2022-08-07T07:35:06.223Z,43.9
2022-08-07T07:54:18.994Z,44.2
2022-08-07T08:15:16.149Z,44.5
2022-08-07T08:34:42.783Z,41.1
2022-08-07T08:54:48.696Z,40.5
2022-08-07T09:14:58.548Z,40
2022-08-07T09:35:04.536Z,37
2022-08-07T09:55:17.177Z,36.3
2022-08-07T10:16:05.231Z,32.8
2022-08-07T10:35:25.649Z,28.4
2022-08-07T10:55:44.999Z,27.6
2022-08-07T11:14:57.598Z,25.4
2022-08-07T11:35:24.998Z,25.7
2022-08-07T11:56:08.862Z,23.9
2022-08-07T12:15:36.028Z,22.6
2022-08-07T12:55:18.162Z,22.9
2022-08-07T13:13:50.247Z,22.4
2022-08-07T13:34:44.529Z,22.1
2022-08-07T13:55:25.766Z,21.3
2022-08-07T14:14:01.112Z,22.1
2022-08-07T14:34:32.808Z,23.6
2022-08-07T15:14:31.828Z,24.7
2022-08-07T15:34:28.686Z,25.3
2022-08-07T15:55:03.779Z,25.7
2022-08-07T16:14:12.457Z,26
2022-08-07T16:35:50.448Z,27.3
2022-08-07T16:54:03.192Z,28.3
2022-08-07T17:15:44.045Z,28
2022-08-07T17:34:34.280Z,28.7
2022-08-07T17:55:04.473Z,29.6
2022-08-07T18:14:25.441Z,30.5
2022-08-07T18:34:37.350Z,31.6
2022-08-07T18:55:41.538Z,33.3
2022-08-07T19:14:53.441Z,33.7
2022-08-07T19:34:15.993Z,34.2
2022-08-07T19:54:44.738Z,35.2
2022-08-07T20:14:53.847Z,35.8
2022-08-07T20:35:32.085Z,35.9
2022-08-07T20:55:09.974Z,36.9
2022-08-07T21:15:47.450Z,36.4
2022-08-07T21:35:34.390Z,36.6
2022-08-07T21:54:04.561Z,36.7
2022-08-07T22:14:14.996Z,37
2022-08-07T22:34:35.934Z,36.9
2022-08-07T22:55:14.984Z,38.3
2022-08-07T23:14:48.340Z,40.8
2022-08-07T23:35:16.565Z,44.1
2022-08-07T23:54:36.351Z,46.6
